sensor_id;sensor_type;location;lat;lon;timestamp;P1;durP1;ratioP1;P2;durP2;ratioP2
52586;SDS011;38480;52.724;6.436;2022-12-11T00:00:19;203.47;;;40.17;;
52586;SDS011;38480;52.724;6.436;2022-12-11T00:02:45;199.10;;;41.57;;
52586;SDS011;38480;52.724;6.436;2022-12-11T00:05:12;190.43;;;44.20;;
52586;SDS011;38480;52.724;6.436;2022-12-11T00:07:38;205.07;;;44.93;;
52586;SDS011;38480;52.724;6.436;2022-12-11T00:10:04;203.50;;;41.33;;
52586;SDS011;38480;52.724;6.436;2022-12-11T00:12:30;195.33;;;41.87;;
52586;SDS011;38480;52.724;6.436;2022-12-11T00:14:56;191.00;;;41.63;;
52586;SDS011;38480;52.724;6.436;2022-12-11T00:17:22;184.10;;;38.03;;
52586;SDS011;38480;52.724;6.436;2022-12-11T00:19:48;177.67;;;38.97;;
52586;SDS011;38480;52.724;6.436;2022-12-11T00:22:14;181.87;;;39.47;;
52586;SDS011;38480;52.724;6.436;2022-12-11T00:24:40;173.13;;;39.37;;
52586;SDS011;38480;52.724;6.436;2022-12-11T00:27:06;175.97;;;37.83;;
52586;SDS011;38480;52.724;6.436;2022-12-11T00:29:33;196.93;;;42.10;;
52586;SDS011;38480;52.724;6.436;2022-12-11T00:31:59;171.47;;;38.60;;
52586;SDS011;38480;52.724;6.436;2022-12-11T00:34:25;186.13;;;39.23;;
52586;SDS011;38480;52.724;6.436;2022-12-11T00:36:51;172.93;;;39.33;;
52586;SDS011;38480;52.724;6.436;2022-12-11T00:39:17;177.30;;;40.47;;
52586;SDS011;38480;52.724;6.436;2022-12-11T00:41:43;167.90;;;40.80;;
52586;SDS011;38480;52.724;6.436;2022-12-11T00:44:09;198.43;;;40.97;;
52586;SDS011;38480;52.724;6.436;2022-12-11T00:46:35;182.57;;;37.87;;
52586;SDS011;38480;52.724;6.436;2022-12-11T00:49:01;183.47;;;39.37;;
52586;SDS011;38480;52.724;6.436;2022-12-11T00:51:28;175.63;;;37.37;;
52586;SDS011;38480;52.724;6.436;2022-12-11T00:53:54;163.10;;;36.70;;
52586;SDS011;38480;52.724;6.436;2022-12-11T00:56:20;175.27;;;37.30;;
52586;SDS011;38480;52.724;6.436;2022-12-11T00:58:47;154.17;;;33.70;;
52586;SDS011;38480;52.724;6.436;2022-12-11T01:01:15;144.17;;;35.30;;
52586;SDS011;38480;52.724;6.436;2022-12-11T01:03:41;152.27;;;34.40;;
52586;SDS011;38480;52.724;6.436;2022-12-11T01:06:10;153.40;;;34.47;;
52586;SDS011;38480;52.724;6.436;2022-12-11T01:08:38;173.50;;;37.97;;
52586;SDS011;38480;52.724;6.436;2022-12-11T01:11:05;181.53;;;35.63;;
52586;SDS011;38480;52.724;6.436;2022-12-11T01:13:31;168.53;;;34.20;;
52586;SDS011;38480;52.724;6.436;2022-12-11T01:15:57;126.47;;;30.00;;
52586;SDS011;38480;52.724;6.436;2022-12-11T01:18:23;133.23;;;32.13;;
52586;SDS011;38480;52.724;6.436;2022-12-11T01:20:49;153.10;;;35.17;;
52586;SDS011;38480;52.724;6.436;2022-12-11T01:23:15;131.97;;;32.17;;
52586;SDS011;38480;52.724;6.436;2022-12-11T01:25:42;135.47;;;35.37;;
52586;SDS011;38480;52.724;6.436;2022-12-11T01:28:08;140.43;;;32.83;;
52586;SDS011;38480;52.724;6.436;2022-12-11T01:30:34;164.43;;;36.80;;
52586;SDS011;38480;52.724;6.436;2022-12-11T01:33:00;184.33;;;36.70;;
52586;SDS011;38480;52.724;6.436;2022-12-11T01:35:27;163.97;;;34.57;;
52586;SDS011;38480;52.724;6.436;2022-12-11T01:37:53;172.87;;;35.70;;
52586;SDS011;38480;52.724;6.436;2022-12-11T01:40:19;155.97;;;36.73;;
52586;SDS011;38480;52.724;6.436;2022-12-11T01:42:46;156.03;;;34.83;;
52586;SDS011;38480;52.724;6.436;2022-12-11T01:47:55;168.83;;;36.10;;
52586;SDS011;38480;52.724;6.436;2022-12-11T01:50:21;154.33;;;36.37;;
52586;SDS011;38480;52.724;6.436;2022-12-11T01:52:48;150.03;;;33.37;;
52586;SDS011;38480;52.724;6.436;2022-12-11T01:55:14;159.53;;;36.30;;
52586;SDS011;38480;52.724;6.436;2022-12-11T01:57:42;130.47;;;32.47;;
52586;SDS011;38480;52.724;6.436;2022-12-11T02:00:10;141.87;;;34.17;;
52586;SDS011;38480;52.724;6.436;2022-12-11T02:02:36;147.93;;;35.37;;
52586;SDS011;38480;52.724;6.436;2022-12-11T02:05:03;140.90;;;32.83;;
52586;SDS011;38480;52.724;6.436;2022-12-11T02:07:31;137.10;;;34.03;;
52586;SDS011;38480;52.724;6.436;2022-12-11T02:09:58;144.10;;;34.33;;
52586;SDS011;38480;52.724;6.436;2022-12-11T02:17:50;161.30;;;33.90;;
52586;SDS011;38480;52.724;6.436;2022-12-11T02:23:09;169.90;;;35.97;;
52586;SDS011;38480;52.724;6.436;2022-12-11T02:28:31;140.10;;;35.17;;
52586;SDS011;38480;52.724;6.436;2022-12-11T02:30:59;162.97;;;36.63;;
52586;SDS011;38480;52.724;6.436;2022-12-11T02:33:35;174.03;;;34.73;;
52586;SDS011;38480;52.724;6.436;2022-12-11T02:36:04;164.63;;;35.27;;
52586;SDS011;38480;52.724;6.436;2022-12-11T02:38:32;177.67;;;38.27;;
52586;SDS011;38480;52.724;6.436;2022-12-11T02:41:00;181.07;;;38.27;;
52586;SDS011;38480;52.724;6.436;2022-12-11T02:43:27;174.53;;;35.97;;
52586;SDS011;38480;52.724;6.436;2022-12-11T02:45:56;180.50;;;38.90;;
52586;SDS011;38480;52.724;6.436;2022-12-11T02:48:22;160.23;;;36.80;;
52586;SDS011;38480;52.724;6.436;2022-12-11T02:50:49;175.97;;;36.23;;
52586;SDS011;38480;52.724;6.436;2022-12-11T02:53:18;171.03;;;34.70;;
52586;SDS011;38480;52.724;6.436;2022-12-11T02:55:45;165.33;;;34.70;;
52586;SDS011;38480;52.724;6.436;2022-12-11T02:58:20;169.80;;;38.90;;
52586;SDS011;38480;52.724;6.436;2022-12-11T03:00:47;174.27;;;39.63;;
52586;SDS011;38480;52.724;6.436;2022-12-11T03:03:13;187.17;;;38.93;;
52586;SDS011;38480;52.724;6.436;2022-12-11T03:05:40;166.13;;;37.33;;
52586;SDS011;38480;52.724;6.436;2022-12-11T03:08:06;169.53;;;39.33;;
52586;SDS011;38480;52.724;6.436;2022-12-11T03:10:33;177.90;;;41.90;;
52586;SDS011;38480;52.724;6.436;2022-12-11T03:12:59;205.63;;;39.60;;
52586;SDS011;38480;52.724;6.436;2022-12-11T03:15:32;214.03;;;42.23;;
52586;SDS011;38480;52.724;6.436;2022-12-11T03:20:29;190.27;;;38.67;;
52586;SDS011;38480;52.724;6.436;2022-12-11T03:25:25;180.77;;;38.37;;
52586;SDS011;38480;52.724;6.436;2022-12-11T03:27:56;176.73;;;38.60;;
52586;SDS011;38480;52.724;6.436;2022-12-11T03:30:23;187.87;;;39.33;;
52586;SDS011;38480;52.724;6.436;2022-12-11T03:32:50;169.93;;;38.13;;
52586;SDS011;38480;52.724;6.436;2022-12-11T03:35:19;165.43;;;38.10;;
52586;SDS011;38480;52.724;6.436;2022-12-11T03:37:47;176.43;;;37.93;;
52586;SDS011;38480;52.724;6.436;2022-12-11T03:40:15;168.70;;;36.00;;
52586;SDS011;38480;52.724;6.436;2022-12-11T03:42:45;155.30;;;36.40;;
52586;SDS011;38480;52.724;6.436;2022-12-11T03:45:12;156.17;;;36.07;;
52586;SDS011;38480;52.724;6.436;2022-12-11T03:47:39;135.53;;;35.27;;
52586;SDS011;38480;52.724;6.436;2022-12-11T03:50:07;159.53;;;34.47;;
52586;SDS011;38480;52.724;6.436;2022-12-11T03:52:34;172.20;;;36.17;;
52586;SDS011;38480;52.724;6.436;2022-12-11T03:55:02;138.77;;;35.87;;
52586;SDS011;38480;52.724;6.436;2022-12-11T03:57:29;151.77;;;34.73;;
52586;SDS011;38480;52.724;6.436;2022-12-11T03:59:55;164.33;;;37.67;;
52586;SDS011;38480;52.724;6.436;2022-12-11T04:02:22;150.80;;;36.23;;
52586;SDS011;38480;52.724;6.436;2022-12-11T04:04:48;160.47;;;37.40;;
52586;SDS011;38480;52.724;6.436;2022-12-11T04:07:14;177.80;;;37.63;;
52586;SDS011;38480;52.724;6.436;2022-12-11T04:09:40;168.43;;;37.20;;
52586;SDS011;38480;52.724;6.436;2022-12-11T04:12:06;151.97;;;36.83;;
52586;SDS011;38480;52.724;6.436;2022-12-11T04:14:34;157.73;;;38.57;;
52586;SDS011;38480;52.724;6.436;2022-12-11T04:17:19;160.17;;;37.57;;
52586;SDS011;38480;52.724;6.436;2022-12-11T04:20:05;167.90;;;39.10;;
52586;SDS011;38480;52.724;6.436;2022-12-11T04:22:50;139.80;;;34.40;;
52586;SDS011;38480;52.724;6.436;2022-12-11T04:25:35;168.57;;;35.97;;
52586;SDS011;38480;52.724;6.436;2022-12-11T04:28:01;129.63;;;35.93;;
52586;SDS011;38480;52.724;6.436;2022-12-11T04:30:27;140.80;;;35.20;;
52586;SDS011;38480;52.724;6.436;2022-12-11T04:32:53;166.73;;;37.40;;
52586;SDS011;38480;52.724;6.436;2022-12-11T04:35:19;171.37;;;38.00;;
52586;SDS011;38480;52.724;6.436;2022-12-11T04:37:45;159.10;;;37.90;;
52586;SDS011;38480;52.724;6.436;2022-12-11T04:40:12;145.43;;;32.63;;
52586;SDS011;38480;52.724;6.436;2022-12-11T04:42:39;169.83;;;36.87;;
52586;SDS011;38480;52.724;6.436;2022-12-11T04:45:05;151.60;;;35.27;;
52586;SDS011;38480;52.724;6.436;2022-12-11T04:47:33;143.03;;;35.43;;
52586;SDS011;38480;52.724;6.436;2022-12-11T04:50:00;161.30;;;36.90;;
52586;SDS011;38480;52.724;6.436;2022-12-11T04:52:26;151.40;;;35.13;;
52586;SDS011;38480;52.724;6.436;2022-12-11T04:54:52;159.83;;;36.80;;
52586;SDS011;38480;52.724;6.436;2022-12-11T04:57:18;129.63;;;34.23;;
52586;SDS011;38480;52.724;6.436;2022-12-11T04:59:45;173.63;;;34.33;;
52586;SDS011;38480;52.724;6.436;2022-12-11T05:02:11;162.00;;;36.67;;
52586;SDS011;38480;52.724;6.436;2022-12-11T05:04:37;144.53;;;33.93;;
52586;SDS011;38480;52.724;6.436;2022-12-11T05:07:03;161.40;;;35.60;;
52586;SDS011;38480;52.724;6.436;2022-12-11T05:09:30;157.80;;;32.13;;
52586;SDS011;38480;52.724;6.436;2022-12-11T05:11:56;152.47;;;37.17;;
52586;SDS011;38480;52.724;6.436;2022-12-11T05:14:22;164.30;;;38.07;;
52586;SDS011;38480;52.724;6.436;2022-12-11T05:16:48;170.07;;;38.70;;
52586;SDS011;38480;52.724;6.436;2022-12-11T05:19:14;161.53;;;36.90;;
52586;SDS011;38480;52.724;6.436;2022-12-11T05:21:40;152.37;;;34.70;;
52586;SDS011;38480;52.724;6.436;2022-12-11T05:24:06;164.83;;;35.90;;
52586;SDS011;38480;52.724;6.436;2022-12-11T05:26:32;181.70;;;38.30;;
52586;SDS011;38480;52.724;6.436;2022-12-11T05:28:58;185.40;;;37.97;;
52586;SDS011;38480;52.724;6.436;2022-12-11T05:31:25;189.00;;;36.70;;
52586;SDS011;38480;52.724;6.436;2022-12-11T05:33:51;162.77;;;35.57;;
52586;SDS011;38480;52.724;6.436;2022-12-11T05:36:21;166.70;;;37.60;;
52586;SDS011;38480;52.724;6.436;2022-12-11T05:38:48;189.17;;;39.97;;
52586;SDS011;38480;52.724;6.436;2022-12-11T05:41:15;158.33;;;37.00;;
52586;SDS011;38480;52.724;6.436;2022-12-11T05:43:42;155.50;;;34.60;;
52586;SDS011;38480;52.724;6.436;2022-12-11T05:46:09;170.23;;;36.33;;
52586;SDS011;38480;52.724;6.436;2022-12-11T05:48:35;152.40;;;34.73;;
52586;SDS011;38480;52.724;6.436;2022-12-11T05:51:02;174.20;;;39.33;;
52586;SDS011;38480;52.724;6.436;2022-12-11T05:53:28;166.83;;;35.17;;
52586;SDS011;38480;52.724;6.436;2022-12-11T05:55:59;172.30;;;36.57;;
52586;SDS011;38480;52.724;6.436;2022-12-11T05:58:25;160.50;;;35.80;;
52586;SDS011;38480;52.724;6.436;2022-12-11T06:00:51;176.17;;;37.30;;
52586;SDS011;38480;52.724;6.436;2022-12-11T06:03:17;162.10;;;38.03;;
52586;SDS011;38480;52.724;6.436;2022-12-11T06:05:43;134.07;;;33.63;;
52586;SDS011;38480;52.724;6.436;2022-12-11T06:08:10;156.07;;;35.23;;
52586;SDS011;38480;52.724;6.436;2022-12-11T06:10:36;145.47;;;35.40;;
52586;SDS011;38480;52.724;6.436;2022-12-11T06:13:02;157.53;;;37.03;;
52586;SDS011;38480;52.724;6.436;2022-12-11T06:15:28;146.83;;;35.40;;
52586;SDS011;38480;52.724;6.436;2022-12-11T06:17:54;158.17;;;35.40;;
52586;SDS011;38480;52.724;6.436;2022-12-11T06:20:20;171.17;;;37.93;;
52586;SDS011;38480;52.724;6.436;2022-12-11T06:22:46;154.70;;;35.90;;
52586;SDS011;38480;52.724;6.436;2022-12-11T06:25:12;159.77;;;34.03;;
52586;SDS011;38480;52.724;6.436;2022-12-11T06:27:38;163.10;;;37.00;;
52586;SDS011;38480;52.724;6.436;2022-12-11T06:30:04;158.90;;;36.87;;
52586;SDS011;38480;52.724;6.436;2022-12-11T06:32:31;182.50;;;39.23;;
52586;SDS011;38480;52.724;6.436;2022-12-11T06:34:57;167.53;;;37.47;;
52586;SDS011;38480;52.724;6.436;2022-12-11T06:37:23;158.97;;;35.57;;
52586;SDS011;38480;52.724;6.436;2022-12-11T06:39:49;155.87;;;38.30;;
52586;SDS011;38480;52.724;6.436;2022-12-11T06:42:15;167.73;;;38.17;;
52586;SDS011;38480;52.724;6.436;2022-12-11T06:44:41;149.47;;;37.77;;
52586;SDS011;38480;52.724;6.436;2022-12-11T06:47:07;158.97;;;37.43;;
52586;SDS011;38480;52.724;6.436;2022-12-11T06:49:33;160.13;;;39.23;;
52586;SDS011;38480;52.724;6.436;2022-12-11T06:51:59;158.67;;;39.90;;
52586;SDS011;38480;52.724;6.436;2022-12-11T06:54:25;174.37;;;37.83;;
52586;SDS011;38480;52.724;6.436;2022-12-11T06:56:52;173.33;;;36.90;;
52586;SDS011;38480;52.724;6.436;2022-12-11T06:59:18;156.40;;;38.83;;
52586;SDS011;38480;52.724;6.436;2022-12-11T07:01:44;158.50;;;38.30;;
52586;SDS011;38480;52.724;6.436;2022-12-11T07:04:10;131.83;;;35.43;;
52586;SDS011;38480;52.724;6.436;2022-12-11T07:06:36;173.70;;;36.60;;
52586;SDS011;38480;52.724;6.436;2022-12-11T07:09:03;154.70;;;38.13;;
52586;SDS011;38480;52.724;6.436;2022-12-11T07:11:29;177.67;;;37.63;;
52586;SDS011;38480;52.724;6.436;2022-12-11T07:13:58;156.47;;;36.93;;
52586;SDS011;38480;52.724;6.436;2022-12-11T07:16:25;153.43;;;34.17;;
52586;SDS011;38480;52.724;6.436;2022-12-11T07:18:51;167.50;;;38.00;;
52586;SDS011;38480;52.724;6.436;2022-12-11T07:21:18;165.23;;;36.47;;
52586;SDS011;38480;52.724;6.436;2022-12-11T07:23:44;157.87;;;37.40;;
52586;SDS011;38480;52.724;6.436;2022-12-11T07:26:12;164.77;;;37.73;;
52586;SDS011;38480;52.724;6.436;2022-12-11T07:28:39;147.80;;;37.53;;
52586;SDS011;38480;52.724;6.436;2022-12-11T07:31:13;149.97;;;35.20;;
52586;SDS011;38480;52.724;6.436;2022-12-11T07:36:05;143.30;;;35.17;;
52586;SDS011;38480;52.724;6.436;2022-12-11T07:38:32;152.30;;;34.90;;
52586;SDS011;38480;52.724;6.436;2022-12-11T07:41:02;147.13;;;34.50;;
52586;SDS011;38480;52.724;6.436;2022-12-11T07:43:29;138.07;;;36.23;;
52586;SDS011;38480;52.724;6.436;2022-12-11T07:45:59;138.80;;;34.93;;
52586;SDS011;38480;52.724;6.436;2022-12-11T07:48:25;157.97;;;37.37;;
52586;SDS011;38480;52.724;6.436;2022-12-11T07:50:51;142.07;;;37.27;;
52586;SDS011;38480;52.724;6.436;2022-12-11T07:53:17;159.00;;;37.40;;
52586;SDS011;38480;52.724;6.436;2022-12-11T07:55:43;149.57;;;37.10;;
52586;SDS011;38480;52.724;6.436;2022-12-11T07:58:09;154.43;;;34.47;;
52586;SDS011;38480;52.724;6.436;2022-12-11T08:00:35;146.77;;;36.07;;
52586;SDS011;38480;52.724;6.436;2022-12-11T08:03:01;155.60;;;37.57;;
52586;SDS011;38480;52.724;6.436;2022-12-11T08:05:27;159.43;;;35.97;;
52586;SDS011;38480;52.724;6.436;2022-12-11T08:07:53;149.63;;;35.10;;
52586;SDS011;38480;52.724;6.436;2022-12-11T08:10:19;157.83;;;35.33;;
52586;SDS011;38480;52.724;6.436;2022-12-11T08:12:46;155.40;;;34.97;;
52586;SDS011;38480;52.724;6.436;2022-12-11T08:15:12;151.73;;;35.13;;
52586;SDS011;38480;52.724;6.436;2022-12-11T08:17:38;141.03;;;34.07;;
52586;SDS011;38480;52.724;6.436;2022-12-11T08:20:05;171.97;;;36.90;;
52586;SDS011;38480;52.724;6.436;2022-12-11T08:22:32;140.90;;;35.10;;
52586;SDS011;38480;52.724;6.436;2022-12-11T08:24:58;156.87;;;36.90;;
52586;SDS011;38480;52.724;6.436;2022-12-11T08:27:24;157.87;;;36.60;;
52586;SDS011;38480;52.724;6.436;2022-12-11T08:29:50;127.10;;;35.53;;
52586;SDS011;38480;52.724;6.436;2022-12-11T08:32:16;163.43;;;36.47;;
52586;SDS011;38480;52.724;6.436;2022-12-11T08:34:42;161.83;;;35.57;;
52586;SDS011;38480;52.724;6.436;2022-12-11T08:37:08;130.07;;;34.07;;
52586;SDS011;38480;52.724;6.436;2022-12-11T08:39:34;145.40;;;34.57;;
52586;SDS011;38480;52.724;6.436;2022-12-11T08:42:00;134.53;;;34.50;;
52586;SDS011;38480;52.724;6.436;2022-12-11T08:44:27;139.43;;;34.67;;
52586;SDS011;38480;52.724;6.436;2022-12-11T08:46:53;159.47;;;37.57;;
52586;SDS011;38480;52.724;6.436;2022-12-11T08:49:19;145.80;;;34.20;;
52586;SDS011;38480;52.724;6.436;2022-12-11T08:51:45;153.60;;;35.13;;
52586;SDS011;38480;52.724;6.436;2022-12-11T08:54:11;146.13;;;33.73;;
52586;SDS011;38480;52.724;6.436;2022-12-11T08:56:37;134.03;;;36.53;;
52586;SDS011;38480;52.724;6.436;2022-12-11T08:59:03;137.70;;;34.63;;
52586;SDS011;38480;52.724;6.436;2022-12-11T09:01:30;153.30;;;34.17;;
52586;SDS011;38480;52.724;6.436;2022-12-11T09:03:56;128.60;;;32.83;;
52586;SDS011;38480;52.724;6.436;2022-12-11T09:06:23;141.93;;;34.03;;
52586;SDS011;38480;52.724;6.436;2022-12-11T09:08:50;146.17;;;34.17;;
52586;SDS011;38480;52.724;6.436;2022-12-11T09:11:18;138.80;;;34.17;;
52586;SDS011;38480;52.724;6.436;2022-12-11T09:13:44;126.30;;;31.00;;
52586;SDS011;38480;52.724;6.436;2022-12-11T09:16:12;135.57;;;32.53;;
52586;SDS011;38480;52.724;6.436;2022-12-11T09:18:38;120.43;;;32.23;;
52586;SDS011;38480;52.724;6.436;2022-12-11T09:21:08;134.80;;;34.00;;
52586;SDS011;38480;52.724;6.436;2022-12-11T09:23:35;125.03;;;32.10;;
52586;SDS011;38480;52.724;6.436;2022-12-11T09:26:09;128.67;;;32.03;;
52586;SDS011;38480;52.724;6.436;2022-12-11T09:28:35;138.53;;;31.90;;
52586;SDS011;38480;52.724;6.436;2022-12-11T09:31:08;124.57;;;32.50;;
52586;SDS011;38480;52.724;6.436;2022-12-11T09:33:34;132.70;;;33.88;;
52586;SDS011;38480;52.724;6.436;2022-12-11T09:36:01;117.73;;;33.67;;
52586;SDS011;38480;52.724;6.436;2022-12-11T09:38:27;141.70;;;33.93;;
52586;SDS011;38480;52.724;6.436;2022-12-11T09:40:53;135.47;;;32.43;;
52586;SDS011;38480;52.724;6.436;2022-12-11T09:45:54;122.10;;;33.83;;
52586;SDS011;38480;52.724;6.436;2022-12-11T09:48:21;155.27;;;34.27;;
52586;SDS011;38480;52.724;6.436;2022-12-11T09:50:49;125.97;;;31.23;;
52586;SDS011;38480;52.724;6.436;2022-12-11T09:58:26;119.73;;;32.70;;
52586;SDS011;38480;52.724;6.436;2022-12-11T10:03:35;136.80;;;33.53;;
52586;SDS011;38480;52.724;6.436;2022-12-11T10:06:23;127.30;;;34.17;;
52586;SDS011;38480;52.724;6.436;2022-12-11T10:08:59;148.07;;;33.17;;
52586;SDS011;38480;52.724;6.436;2022-12-11T10:16:48;147.30;;;32.40;;
52586;SDS011;38480;52.724;6.436;2022-12-11T10:19:16;127.60;;;32.50;;
52586;SDS011;38480;52.724;6.436;2022-12-11T10:21:43;128.17;;;34.70;;
52586;SDS011;38480;52.724;6.436;2022-12-11T10:24:19;129.30;;;31.33;;
52586;SDS011;38480;52.724;6.436;2022-12-11T10:26:51;135.60;;;32.97;;
52586;SDS011;38480;52.724;6.436;2022-12-11T10:29:19;126.90;;;32.20;;
52586;SDS011;38480;52.724;6.436;2022-12-11T10:31:48;132.67;;;33.80;;
52586;SDS011;38480;52.724;6.436;2022-12-11T10:36:53;123.97;;;32.13;;
52586;SDS011;38480;52.724;6.436;2022-12-11T10:39:20;122.50;;;33.33;;
52586;SDS011;38480;52.724;6.436;2022-12-11T10:41:47;116.90;;;30.50;;
52586;SDS011;38480;52.724;6.436;2022-12-11T10:44:15;106.80;;;31.37;;
52586;SDS011;38480;52.724;6.436;2022-12-11T10:46:41;122.13;;;32.10;;
52586;SDS011;38480;52.724;6.436;2022-12-11T10:49:19;144.80;;;33.83;;
52586;SDS011;38480;52.724;6.436;2022-12-11T10:51:45;126.97;;;32.23;;
52586;SDS011;38480;52.724;6.436;2022-12-11T10:54:54;138.77;;;32.20;;
52586;SDS011;38480;52.724;6.436;2022-12-11T10:57:02;114.73;;;32.37;;
52586;SDS011;38480;52.724;6.436;2022-12-11T10:59:45;134.13;;;32.77;;
52586;SDS011;38480;52.724;6.436;2022-12-11T11:04:43;123.77;;;31.17;;
52586;SDS011;38480;52.724;6.436;2022-12-11T11:07:11;149.83;;;36.13;;
52586;SDS011;38480;52.724;6.436;2022-12-11T11:09:37;123.03;;;33.27;;
52586;SDS011;38480;52.724;6.436;2022-12-11T11:12:04;111.70;;;31.83;;
52586;SDS011;38480;52.724;6.436;2022-12-11T11:14:41;124.80;;;32.07;;
52586;SDS011;38480;52.724;6.436;2022-12-11T11:17:14;112.17;;;32.53;;
52586;SDS011;38480;52.724;6.436;2022-12-11T11:22:14;122.53;;;32.60;;
52586;SDS011;38480;52.724;6.436;2022-12-11T11:24:44;132.80;;;31.93;;
52586;SDS011;38480;52.724;6.436;2022-12-11T11:27:13;119.10;;;29.37;;
52586;SDS011;38480;52.724;6.436;2022-12-11T11:29:44;151.23;;;34.63;;
52586;SDS011;38480;52.724;6.436;2022-12-11T11:35:04;130.70;;;34.03;;
52586;SDS011;38480;52.724;6.436;2022-12-11T11:37:31;133.50;;;35.80;;
52586;SDS011;38480;52.724;6.436;2022-12-11T11:40:18;111.03;;;30.87;;
52586;SDS011;38480;52.724;6.436;2022-12-11T11:42:48;116.67;;;34.73;;
52586;SDS011;38480;52.724;6.436;2022-12-11T11:45:21;116.40;;;33.37;;
52586;SDS011;38480;52.724;6.436;2022-12-11T11:47:55;119.83;;;32.73;;
52586;SDS011;38480;52.724;6.436;2022-12-11T11:50:24;121.97;;;33.30;;
52586;SDS011;38480;52.724;6.436;2022-12-11T11:52:56;130.40;;;35.37;;
52586;SDS011;38480;52.724;6.436;2022-12-11T11:57:59;115.83;;;33.97;;
52586;SDS011;38480;52.724;6.436;2022-12-11T12:00:26;124.30;;;36.07;;
52586;SDS011;38480;52.724;6.436;2022-12-11T12:02:59;119.73;;;34.47;;
52586;SDS011;38480;52.724;6.436;2022-12-11T12:05:27;145.18;;;37.72;;
52586;SDS011;38480;52.724;6.436;2022-12-11T12:08:01;131.13;;;37.33;;
52586;SDS011;38480;52.724;6.436;2022-12-11T12:10:47;119.03;;;33.60;;
52586;SDS011;38480;52.724;6.436;2022-12-11T12:13:29;123.97;;;34.70;;
52586;SDS011;38480;52.724;6.436;2022-12-11T12:15:57;118.63;;;33.77;;
52586;SDS011;38480;52.724;6.436;2022-12-11T12:21:01;108.53;;;35.73;;
52586;SDS011;38480;52.724;6.436;2022-12-11T12:34:13;105.93;;;33.77;;
52586;SDS011;38480;52.724;6.436;2022-12-11T12:36:46;117.70;;;34.60;;
52586;SDS011;38480;52.724;6.436;2022-12-11T12:47:19;116.67;;;34.77;;
52586;SDS011;38480;52.724;6.436;2022-12-11T12:49:49;100.43;;;34.07;;
52586;SDS011;38480;52.724;6.436;2022-12-11T12:52:20;105.53;;;33.50;;
52586;SDS011;38480;52.724;6.436;2022-12-11T12:54:50;125.93;;;33.83;;
52586;SDS011;38480;52.724;6.436;2022-12-11T12:57:36;91.40;;;31.90;;
52586;SDS011;38480;52.724;6.436;2022-12-11T13:00:03;78.83;;;30.53;;
52586;SDS011;38480;52.724;6.436;2022-12-11T13:02:30;77.03;;;31.90;;
52586;SDS011;38480;52.724;6.436;2022-12-11T13:05:00;71.40;;;28.27;;
52586;SDS011;38480;52.724;6.436;2022-12-11T13:07:29;74.63;;;27.95;;
52586;SDS011;38480;52.724;6.436;2022-12-11T13:09:57;67.73;;;28.10;;
52586;SDS011;38480;52.724;6.436;2022-12-11T13:12:43;68.87;;;28.30;;
52586;SDS011;38480;52.724;6.436;2022-12-11T13:15:26;71.27;;;24.43;;
52586;SDS011;38480;52.724;6.436;2022-12-11T13:17:52;61.33;;;24.53;;
52586;SDS011;38480;52.724;6.436;2022-12-11T13:20:20;62.63;;;24.87;;
52586;SDS011;38480;52.724;6.436;2022-12-11T13:22:48;53.63;;;23.90;;
52586;SDS011;38480;52.724;6.436;2022-12-11T13:25:19;49.17;;;20.70;;
52586;SDS011;38480;52.724;6.436;2022-12-11T13:27:46;54.80;;;21.43;;
52586;SDS011;38480;52.724;6.436;2022-12-11T13:32:42;53.73;;;23.87;;
52586;SDS011;38480;52.724;6.436;2022-12-11T13:35:15;53.93;;;21.37;;
52586;SDS011;38480;52.724;6.436;2022-12-11T13:37:42;52.83;;;21.17;;
52586;SDS011;38480;52.724;6.436;2022-12-11T13:42:54;52.53;;;21.07;;
52586;SDS011;38480;52.724;6.436;2022-12-11T13:47:46;55.00;;;20.90;;
52586;SDS011;38480;52.724;6.436;2022-12-11T13:50:20;46.57;;;20.30;;
52586;SDS011;38480;52.724;6.436;2022-12-11T13:52:53;42.97;;;19.17;;
52586;SDS011;38480;52.724;6.436;2022-12-11T13:55:21;48.30;;;21.35;;
52586;SDS011;38480;52.724;6.436;2022-12-11T13:57:48;45.10;;;20.10;;
52586;SDS011;38480;52.724;6.436;2022-12-11T14:00:21;52.87;;;23.57;;
52586;SDS011;38480;52.724;6.436;2022-12-11T14:02:47;41.97;;;18.98;;
52586;SDS011;38480;52.724;6.436;2022-12-11T14:05:14;49.80;;;19.07;;
52586;SDS011;38480;52.724;6.436;2022-12-11T14:07:41;41.20;;;19.03;;
52586;SDS011;38480;52.724;6.436;2022-12-11T14:10:19;41.23;;;19.07;;
52586;SDS011;38480;52.724;6.436;2022-12-11T14:12:56;46.60;;;18.83;;
52586;SDS011;38480;52.724;6.436;2022-12-11T14:15:25;40.90;;;19.20;;
52586;SDS011;38480;52.724;6.436;2022-12-11T14:17:51;43.87;;;20.77;;
52586;SDS011;38480;52.724;6.436;2022-12-11T14:20:19;47.93;;;21.10;;
52586;SDS011;38480;52.724;6.436;2022-12-11T14:22:46;48.83;;;19.93;;
52586;SDS011;38480;52.724;6.436;2022-12-11T14:25:20;47.87;;;20.17;;
52586;SDS011;38480;52.724;6.436;2022-12-11T14:27:53;46.97;;;21.17;;
52586;SDS011;38480;52.724;6.436;2022-12-11T14:30:23;52.20;;;20.35;;
52586;SDS011;38480;52.724;6.436;2022-12-11T14:32:50;50.30;;;20.03;;
52586;SDS011;38480;52.724;6.436;2022-12-11T14:35:22;46.07;;;21.30;;
52586;SDS011;38480;52.724;6.436;2022-12-11T14:37:49;46.57;;;20.53;;
52586;SDS011;38480;52.724;6.436;2022-12-11T14:40:16;50.87;;;20.23;;
52586;SDS011;38480;52.724;6.436;2022-12-11T14:42:45;48.40;;;20.40;;
52586;SDS011;38480;52.724;6.436;2022-12-11T14:45:18;47.63;;;20.03;;
52586;SDS011;38480;52.724;6.436;2022-12-11T14:47:44;46.70;;;19.93;;
52586;SDS011;38480;52.724;6.436;2022-12-11T14:50:18;43.37;;;18.83;;
52586;SDS011;38480;52.724;6.436;2022-12-11T14:52:52;46.00;;;20.60;;
52586;SDS011;38480;52.724;6.436;2022-12-11T14:55:24;42.03;;;18.83;;
52586;SDS011;38480;52.724;6.436;2022-12-11T14:57:55;52.07;;;20.30;;
52586;SDS011;38480;52.724;6.436;2022-12-11T15:00:23;50.47;;;21.60;;
52586;SDS011;38480;52.724;6.436;2022-12-11T15:02:57;48.87;;;20.37;;
52586;SDS011;38480;52.724;6.436;2022-12-11T15:05:23;48.28;;;19.15;;
52586;SDS011;38480;52.724;6.436;2022-12-11T15:10:39;47.30;;;20.63;;
52586;SDS011;38480;52.724;6.436;2022-12-11T15:13:07;41.40;;;20.48;;
52586;SDS011;38480;52.724;6.436;2022-12-11T15:15:37;55.70;;;21.23;;
52586;SDS011;38480;52.724;6.436;2022-12-11T15:18:11;49.03;;;19.43;;
52586;SDS011;38480;52.724;6.436;2022-12-11T15:20:42;49.60;;;20.23;;
52586;SDS011;38480;52.724;6.436;2022-12-11T15:23:08;42.80;;;20.20;;
52586;SDS011;38480;52.724;6.436;2022-12-11T15:25:34;49.00;;;21.07;;
52586;SDS011;38480;52.724;6.436;2022-12-11T15:28:00;52.17;;;20.27;;
52586;SDS011;38480;52.724;6.436;2022-12-11T15:30:30;47.23;;;20.83;;
52586;SDS011;38480;52.724;6.436;2022-12-11T15:33:04;48.43;;;19.90;;
52586;SDS011;38480;52.724;6.436;2022-12-11T15:35:30;52.35;;;21.17;;
52586;SDS011;38480;52.724;6.436;2022-12-11T15:37:56;47.07;;;19.07;;